sensor_id;sensor_type;location;lat;lon;timestamp;P1;durP1;ratioP1;P2;durP2;ratioP2
73150;SDS011;61354;50.758;6.106;2023-11-21T00:16:03;7.90;;;3.88;;
73150;SDS011;61354;50.758;6.106;2023-11-21T00:18:29;7.68;;;3.88;;
73150;SDS011;61354;50.758;6.106;2023-11-21T00:20:55;7.20;;;4.05;;
73150;SDS011;61354;50.758;6.106;2023-11-21T00:23:36;7.72;;;3.88;;
73150;SDS011;61354;50.758;6.106;2023-11-21T00:39:54;9.60;;;5.03;;
73150;SDS011;61354;50.758;6.106;2023-11-21T00:42:19;9.85;;;4.88;;
73150;SDS011;61354;50.758;6.106;2023-11-21T00:44:46;8.75;;;5.03;;
73150;SDS011;61354;50.758;6.106;2023-11-21T00:47:12;10.50;;;5.28;;
73150;SDS011;61354;50.758;6.106;2023-11-21T00:49:37;10.68;;;4.80;;
73150;SDS011;61354;50.758;6.106;2023-11-21T00:52:04;11.25;;;5.28;;
73150;SDS011;61354;50.758;6.106;2023-11-21T00:54:30;12.07;;;5.47;;
73150;SDS011;61354;50.758;6.106;2023-11-21T00:56:56;11.00;;;5.55;;
73150;SDS011;61354;50.758;6.106;2023-11-21T00:59:22;13.50;;;5.70;;
73150;SDS011;61354;50.758;6.106;2023-11-21T01:01:48;10.48;;;5.63;;
73150;SDS011;61354;50.758;6.106;2023-11-21T01:04:14;11.52;;;5.38;;
73150;SDS011;61354;50.758;6.106;2023-11-21T01:06:39;13.98;;;5.75;;
73150;SDS011;61354;50.758;6.106;2023-11-21T01:09:05;12.25;;;5.53;;
73150;SDS011;61354;50.758;6.106;2023-11-21T01:11:36;12.25;;;5.20;;
73150;SDS011;61354;50.758;6.106;2023-11-21T01:14:03;13.23;;;5.18;;
73150;SDS011;61354;50.758;6.106;2023-11-21T01:16:29;12.95;;;5.75;;
73150;SDS011;61354;50.758;6.106;2023-11-21T01:18:58;13.48;;;5.75;;
73150;SDS011;61354;50.758;6.106;2023-11-21T01:21:24;9.00;;;4.82;;
73150;SDS011;61354;50.758;6.106;2023-11-21T01:23:50;9.88;;;4.70;;
73150;SDS011;61354;50.758;6.106;2023-11-21T01:26:15;12.52;;;5.88;;
73150;SDS011;61354;50.758;6.106;2023-11-21T01:28:41;14.90;;;6.18;;
73150;SDS011;61354;50.758;6.106;2023-11-21T01:31:07;12.80;;;5.90;;
73150;SDS011;61354;50.758;6.106;2023-11-21T01:33:32;10.63;;;5.60;;
73150;SDS011;61354;50.758;6.106;2023-11-21T01:35:58;9.98;;;5.22;;
73150;SDS011;61354;50.758;6.106;2023-11-21T01:38:25;10.90;;;5.07;;
73150;SDS011;61354;50.758;6.106;2023-11-21T01:40:51;10.50;;;5.53;;
73150;SDS011;61354;50.758;6.106;2023-11-21T01:43:17;13.15;;;6.25;;
73150;SDS011;61354;50.758;6.106;2023-11-21T01:45:42;11.27;;;5.75;;
73150;SDS011;61354;50.758;6.106;2023-11-21T01:48:10;11.95;;;5.80;;
73150;SDS011;61354;50.758;6.106;2023-11-21T01:50:38;11.80;;;5.50;;
73150;SDS011;61354;50.758;6.106;2023-11-21T01:53:04;10.88;;;5.32;;
73150;SDS011;61354;50.758;6.106;2023-11-21T01:55:31;9.30;;;4.70;;
73150;SDS011;61354;50.758;6.106;2023-11-21T01:57:59;9.57;;;5.18;;
73150;SDS011;61354;50.758;6.106;2023-11-21T02:00:25;15.95;;;5.70;;
73150;SDS011;61354;50.758;6.106;2023-11-21T02:02:53;13.10;;;6.25;;
73150;SDS011;61354;50.758;6.106;2023-11-21T02:05:19;13.48;;;5.68;;
73150;SDS011;61354;50.758;6.106;2023-11-21T02:07:46;14.80;;;6.22;;
73150;SDS011;61354;50.758;6.106;2023-11-21T02:10:17;11.95;;;5.75;;
73150;SDS011;61354;50.758;6.106;2023-11-21T02:12:48;11.13;;;5.78;;
73150;SDS011;61354;50.758;6.106;2023-11-21T02:15:15;12.60;;;5.65;;
73150;SDS011;61354;50.758;6.106;2023-11-21T02:17:49;12.68;;;5.40;;
73150;SDS011;61354;50.758;6.106;2023-11-21T02:20:16;13.93;;;5.97;;
73150;SDS011;61354;50.758;6.106;2023-11-21T02:22:43;9.65;;;5.22;;
73150;SDS011;61354;50.758;6.106;2023-11-21T02:25:27;11.75;;;5.60;;
73150;SDS011;61354;50.758;6.106;2023-11-21T02:27:57;10.32;;;5.90;;
73150;SDS011;61354;50.758;6.106;2023-11-21T02:30:24;11.52;;;5.15;;
73150;SDS011;61354;50.758;6.106;2023-11-21T02:32:59;13.13;;;6.15;;
73150;SDS011;61354;50.758;6.106;2023-11-21T02:35:25;11.63;;;5.93;;
73150;SDS011;61354;50.758;6.106;2023-11-21T02:37:52;11.25;;;5.70;;
73150;SDS011;61354;50.758;6.106;2023-11-21T02:40:18;15.90;;;5.97;;
73150;SDS011;61354;50.758;6.106;2023-11-21T02:42:48;10.60;;;5.38;;
73150;SDS011;61354;50.758;6.106;2023-11-21T02:45:18;10.65;;;5.75;;
73150;SDS011;61354;50.758;6.106;2023-11-21T02:50:11;10.90;;;5.63;;
73150;SDS011;61354;50.758;6.106;2023-11-21T02:52:38;11.30;;;5.55;;
73150;SDS011;61354;50.758;6.106;2023-11-21T02:55:05;8.90;;;4.75;;
73150;SDS011;61354;50.758;6.106;2023-11-21T02:57:32;11.50;;;5.80;;
73150;SDS011;61354;50.758;6.106;2023-11-21T02:59:58;11.45;;;5.15;;
73150;SDS011;61354;50.758;6.106;2023-11-21T03:02:25;10.65;;;4.82;;
73150;SDS011;61354;50.758;6.106;2023-11-21T03:04:50;13.57;;;5.55;;
73150;SDS011;61354;50.758;6.106;2023-11-21T03:07:16;11.38;;;5.20;;
73150;SDS011;61354;50.758;6.106;2023-11-21T03:09:44;11.40;;;5.38;;
73150;SDS011;61354;50.758;6.106;2023-11-21T03:12:12;10.82;;;4.68;;
73150;SDS011;61354;50.758;6.106;2023-11-21T03:14:39;10.82;;;4.70;;
73150;SDS011;61354;50.758;6.106;2023-11-21T03:17:05;11.95;;;4.93;;
73150;SDS011;61354;50.758;6.106;2023-11-21T03:19:31;10.85;;;4.80;;
73150;SDS011;61354;50.758;6.106;2023-11-21T03:21:57;10.35;;;4.50;;
73150;SDS011;61354;50.758;6.106;2023-11-21T03:24:22;10.65;;;4.50;;
73150;SDS011;61354;50.758;6.106;2023-11-21T03:26:48;9.18;;;4.68;;
73150;SDS011;61354;50.758;6.106;2023-11-21T03:29:14;8.98;;;3.72;;
73150;SDS011;61354;50.758;6.106;2023-11-21T03:31:40;8.95;;;4.50;;
73150;SDS011;61354;50.758;6.106;2023-11-21T03:34:06;9.55;;;4.38;;
73150;SDS011;61354;50.758;6.106;2023-11-21T03:36:31;8.52;;;3.95;;
73150;SDS011;61354;50.758;6.106;2023-11-21T03:38:57;9.20;;;3.50;;
73150;SDS011;61354;50.758;6.106;2023-11-21T03:41:23;8.95;;;3.55;;
73150;SDS011;61354;50.758;6.106;2023-11-21T03:43:48;8.93;;;4.15;;
73150;SDS011;61354;50.758;6.106;2023-11-21T03:46:14;7.90;;;3.03;;
73150;SDS011;61354;50.758;6.106;2023-11-21T03:48:39;10.45;;;4.00;;
73150;SDS011;61354;50.758;6.106;2023-11-21T03:51:05;7.63;;;3.67;;
73150;SDS011;61354;50.758;6.106;2023-11-21T03:53:31;9.73;;;3.45;;
73150;SDS011;61354;50.758;6.106;2023-11-21T03:55:57;9.10;;;3.90;;
73150;SDS011;61354;50.758;6.106;2023-11-21T03:58:22;7.68;;;3.90;;
73150;SDS011;61354;50.758;6.106;2023-11-21T04:00:48;9.52;;;4.38;;
73150;SDS011;61354;50.758;6.106;2023-11-21T04:03:16;9.93;;;3.97;;
73150;SDS011;61354;50.758;6.106;2023-11-21T04:05:42;8.30;;;3.70;;
73150;SDS011;61354;50.758;6.106;2023-11-21T04:08:07;7.32;;;3.45;;
73150;SDS011;61354;50.758;6.106;2023-11-21T04:10:33;6.85;;;2.97;;
73150;SDS011;61354;50.758;6.106;2023-11-21T04:12:59;8.20;;;3.95;;
73150;SDS011;61354;50.758;6.106;2023-11-21T04:15:25;7.15;;;3.53;;
73150;SDS011;61354;50.758;6.106;2023-11-21T04:17:51;8.65;;;3.42;;
73150;SDS011;61354;50.758;6.106;2023-11-21T04:20:17;7.88;;;3.47;;
73150;SDS011;61354;50.758;6.106;2023-11-21T04:22:42;9.10;;;4.13;;
73150;SDS011;61354;50.758;6.106;2023-11-21T04:25:10;10.13;;;4.45;;
73150;SDS011;61354;50.758;6.106;2023-11-21T04:27:36;10.45;;;4.25;;
73150;SDS011;61354;50.758;6.106;2023-11-21T04:30:03;7.55;;;3.75;;
73150;SDS011;61354;50.758;6.106;2023-11-21T04:32:30;12.30;;;5.00;;
73150;SDS011;61354;50.758;6.106;2023-11-21T04:34:56;9.02;;;4.55;;
73150;SDS011;61354;50.758;6.106;2023-11-21T04:37:22;10.02;;;4.47;;
73150;SDS011;61354;50.758;6.106;2023-11-21T04:39:48;10.30;;;4.32;;
73150;SDS011;61354;50.758;6.106;2023-11-21T04:42:13;9.70;;;4.63;;
73150;SDS011;61354;50.758;6.106;2023-11-21T04:44:39;12.48;;;5.03;;
73150;SDS011;61354;50.758;6.106;2023-11-21T04:47:06;10.63;;;4.38;;
73150;SDS011;61354;50.758;6.106;2023-11-21T04:49:33;10.88;;;4.45;;
73150;SDS011;61354;50.758;6.106;2023-11-21T04:51:59;9.88;;;4.38;;
73150;SDS011;61354;50.758;6.106;2023-11-21T04:54:24;10.60;;;5.05;;
73150;SDS011;61354;50.758;6.106;2023-11-21T04:56:50;10.10;;;4.43;;
73150;SDS011;61354;50.758;6.106;2023-11-21T04:59:18;9.77;;;4.55;;
73150;SDS011;61354;50.758;6.106;2023-11-21T05:01:44;11.80;;;5.25;;
73150;SDS011;61354;50.758;6.106;2023-11-21T05:04:10;11.05;;;5.13;;
73150;SDS011;61354;50.758;6.106;2023-11-21T05:06:36;13.50;;;6.03;;
73150;SDS011;61354;50.758;6.106;2023-11-21T05:09:02;11.73;;;4.97;;
73150;SDS011;61354;50.758;6.106;2023-11-21T05:11:28;12.05;;;4.95;;
73150;SDS011;61354;50.758;6.106;2023-11-21T05:13:57;11.95;;;5.32;;
73150;SDS011;61354;50.758;6.106;2023-11-21T05:16:25;14.77;;;5.70;;
73150;SDS011;61354;50.758;6.106;2023-11-21T05:18:52;12.55;;;4.88;;
73150;SDS011;61354;50.758;6.106;2023-11-21T05:21:18;10.25;;;5.32;;
73150;SDS011;61354;50.758;6.106;2023-11-21T05:23:46;12.00;;;5.57;;
73150;SDS011;61354;50.758;6.106;2023-11-21T05:26:11;12.02;;;5.57;;
73150;SDS011;61354;50.758;6.106;2023-11-21T05:28:37;10.43;;;4.95;;
73150;SDS011;61354;50.758;6.106;2023-11-21T05:31:02;11.10;;;5.53;;
73150;SDS011;61354;50.758;6.106;2023-11-21T05:33:28;10.10;;;4.82;;
73150;SDS011;61354;50.758;6.106;2023-11-21T05:35:53;11.10;;;5.28;;
73150;SDS011;61354;50.758;6.106;2023-11-21T05:38:19;12.32;;;5.10;;
73150;SDS011;61354;50.758;6.106;2023-11-21T05:40:47;10.93;;;5.40;;
73150;SDS011;61354;50.758;6.106;2023-11-21T05:43:13;11.52;;;5.50;;
73150;SDS011;61354;50.758;6.106;2023-11-21T05:45:38;13.00;;;5.38;;
73150;SDS011;61354;50.758;6.106;2023-11-21T05:48:04;11.82;;;5.38;;
73150;SDS011;61354;50.758;6.106;2023-11-21T05:50:31;12.73;;;5.25;;
73150;SDS011;61354;50.758;6.106;2023-11-21T05:52:57;12.48;;;5.20;;
73150;SDS011;61354;50.758;6.106;2023-11-21T05:55:25;11.52;;;5.45;;
73150;SDS011;61354;50.758;6.106;2023-11-21T05:57:51;11.27;;;5.22;;
73150;SDS011;61354;50.758;6.106;2023-11-21T06:00:16;12.15;;;5.50;;
73150;SDS011;61354;50.758;6.106;2023-11-21T06:02:46;10.50;;;5.15;;
73150;SDS011;61354;50.758;6.106;2023-11-21T06:05:12;10.85;;;4.93;;
73150;SDS011;61354;50.758;6.106;2023-11-21T06:07:38;11.15;;;5.22;;
73150;SDS011;61354;50.758;6.106;2023-11-21T06:10:07;13.93;;;5.57;;
73150;SDS011;61354;50.758;6.106;2023-11-21T06:12:38;14.43;;;5.90;;
73150;SDS011;61354;50.758;6.106;2023-11-21T06:15:05;14.02;;;5.78;;
73150;SDS011;61354;50.758;6.106;2023-11-21T06:17:34;11.75;;;4.80;;
73150;SDS011;61354;50.758;6.106;2023-11-21T06:20:05;14.57;;;5.82;;
73150;SDS011;61354;50.758;6.106;2023-11-21T06:22:38;14.05;;;5.90;;
73150;SDS011;61354;50.758;6.106;2023-11-21T06:25:04;11.65;;;5.03;;
73150;SDS011;61354;50.758;6.106;2023-11-21T06:27:32;13.18;;;6.43;;
73150;SDS011;61354;50.758;6.106;2023-11-21T06:29:58;16.63;;;6.80;;
73150;SDS011;61354;50.758;6.106;2023-11-21T06:32:24;13.48;;;5.63;;
73150;SDS011;61354;50.758;6.106;2023-11-21T06:34:49;11.90;;;6.50;;
73150;SDS011;61354;50.758;6.106;2023-11-21T06:37:15;14.57;;;5.97;;
73150;SDS011;61354;50.758;6.106;2023-11-21T06:39:42;14.55;;;6.75;;
73150;SDS011;61354;50.758;6.106;2023-11-21T06:42:08;16.33;;;6.63;;
73150;SDS011;61354;50.758;6.106;2023-11-21T06:44:33;15.70;;;6.60;;
73150;SDS011;61354;50.758;6.106;2023-11-21T06:47:00;16.90;;;6.82;;
73150;SDS011;61354;50.758;6.106;2023-11-21T06:49:26;16.25;;;6.88;;
73150;SDS011;61354;50.758;6.106;2023-11-21T06:51:51;13.73;;;6.30;;
73150;SDS011;61354;50.758;6.106;2023-11-21T06:54:18;18.40;;;7.22;;
73150;SDS011;61354;50.758;6.106;2023-11-21T06:56:44;16.55;;;6.68;;
73150;SDS011;61354;50.758;6.106;2023-11-21T06:59:09;20.10;;;7.03;;
73150;SDS011;61354;50.758;6.106;2023-11-21T07:01:36;18.45;;;7.38;;
73150;SDS011;61354;50.758;6.106;2023-11-21T07:04:04;15.57;;;6.95;;
73150;SDS011;61354;50.758;6.106;2023-11-21T07:06:31;17.05;;;7.47;;
73150;SDS011;61354;50.758;6.106;2023-11-21T07:08:57;14.30;;;6.28;;
73150;SDS011;61354;50.758;6.106;2023-11-21T07:11:23;16.63;;;6.95;;
73150;SDS011;61354;50.758;6.106;2023-11-21T07:13:50;17.13;;;6.88;;
73150;SDS011;61354;50.758;6.106;2023-11-21T07:16:16;16.25;;;6.57;;
73150;SDS011;61354;50.758;6.106;2023-11-21T07:18:41;18.65;;;8.40;;
73150;SDS011;61354;50.758;6.106;2023-11-21T07:21:08;17.38;;;6.65;;
73150;SDS011;61354;50.758;6.106;2023-11-21T07:23:34;15.20;;;7.43;;
73150;SDS011;61354;50.758;6.106;2023-11-21T07:25:59;17.92;;;7.50;;
73150;SDS011;61354;50.758;6.106;2023-11-21T07:28:25;18.70;;;7.13;;
73150;SDS011;61354;50.758;6.106;2023-11-21T07:30:51;18.05;;;7.10;;
73150;SDS011;61354;50.758;6.106;2023-11-21T07:33:16;15.98;;;6.72;;
73150;SDS011;61354;50.758;6.106;2023-11-21T07:35:42;20.40;;;7.63;;
73150;SDS011;61354;50.758;6.106;2023-11-21T07:38:08;17.10;;;6.82;;
73150;SDS011;61354;50.758;6.106;2023-11-21T07:40:34;18.55;;;8.02;;
73150;SDS011;61354;50.758;6.106;2023-11-21T07:42:59;17.52;;;8.00;;
73150;SDS011;61354;50.758;6.106;2023-11-21T07:45:25;19.58;;;8.35;;
73150;SDS011;61354;50.758;6.106;2023-11-21T07:47:55;15.35;;;7.10;;
73150;SDS011;61354;50.758;6.106;2023-11-21T07:50:21;16.80;;;7.72;;
73150;SDS011;61354;50.758;6.106;2023-11-21T07:52:48;21.75;;;8.10;;
73150;SDS011;61354;50.758;6.106;2023-11-21T07:55:15;21.23;;;7.90;;
73150;SDS011;61354;50.758;6.106;2023-11-21T07:57:41;21.40;;;7.30;;
73150;SDS011;61354;50.758;6.106;2023-11-21T08:00:07;18.63;;;8.65;;
73150;SDS011;61354;50.758;6.106;2023-11-21T08:02:34;21.60;;;7.60;;
73150;SDS011;61354;50.758;6.106;2023-11-21T08:05:00;20.35;;;7.85;;
73150;SDS011;61354;50.758;6.106;2023-11-21T08:07:25;20.20;;;8.35;;
73150;SDS011;61354;50.758;6.106;2023-11-21T08:09:51;18.98;;;7.90;;
73150;SDS011;61354;50.758;6.106;2023-11-21T08:12:18;18.65;;;6.90;;
73150;SDS011;61354;50.758;6.106;2023-11-21T08:14:45;21.15;;;7.68;;
73150;SDS011;61354;50.758;6.106;2023-11-21T08:17:11;17.90;;;7.35;;
73150;SDS011;61354;50.758;6.106;2023-11-21T08:19:36;19.80;;;7.88;;
73150;SDS011;61354;50.758;6.106;2023-11-21T08:22:03;16.33;;;7.70;;
73150;SDS011;61354;50.758;6.106;2023-11-21T08:24:29;20.75;;;7.50;;
73150;SDS011;61354;50.758;6.106;2023-11-21T08:26:54;20.95;;;8.10;;
73150;SDS011;61354;50.758;6.106;2023-11-21T08:29:20;20.90;;;8.23;;
73150;SDS011;61354;50.758;6.106;2023-11-21T08:31:45;18.80;;;7.95;;
73150;SDS011;61354;50.758;6.106;2023-11-21T08:34:14;23.75;;;8.63;;
73150;SDS011;61354;50.758;6.106;2023-11-21T08:36:43;22.55;;;7.95;;
73150;SDS011;61354;50.758;6.106;2023-11-21T08:39:09;22.95;;;7.72;;
73150;SDS011;61354;50.758;6.106;2023-11-21T08:41:35;21.25;;;7.85;;
73150;SDS011;61354;50.758;6.106;2023-11-21T08:44:02;23.75;;;8.00;;
73150;SDS011;61354;50.758;6.106;2023-11-21T08:46:30;22.92;;;7.75;;
73150;SDS011;61354;50.758;6.106;2023-11-21T08:48:56;20.30;;;7.07;;
73150;SDS011;61354;50.758;6.106;2023-11-21T08:51:22;23.20;;;8.35;;
73150;SDS011;61354;50.758;6.106;2023-11-21T08:53:47;24.90;;;8.10;;
73150;SDS011;61354;50.758;6.106;2023-11-21T08:56:13;21.73;;;8.02;;
73150;SDS011;61354;50.758;6.106;2023-11-21T08:58:43;21.73;;;6.90;;
73150;SDS011;61354;50.758;6.106;2023-11-21T09:01:09;23.40;;;8.02;;
73150;SDS011;61354;50.758;6.106;2023-11-21T09:03:35;23.00;;;8.13;;
73150;SDS011;61354;50.758;6.106;2023-11-21T09:06:00;20.75;;;8.25;;
73150;SDS011;61354;50.758;6.106;2023-11-21T09:08:26;18.83;;;7.60;;
73150;SDS011;61354;50.758;6.106;2023-11-21T09:13:20;20.02;;;7.30;;
73150;SDS011;61354;50.758;6.106;2023-11-21T09:15:45;21.05;;;7.10;;
73150;SDS011;61354;50.758;6.106;2023-11-21T09:18:14;18.80;;;7.43;;
73150;SDS011;61354;50.758;6.106;2023-11-21T09:20:40;20.25;;;8.23;;
73150;SDS011;61354;50.758;6.106;2023-11-21T09:23:09;20.90;;;7.90;;
73150;SDS011;61354;50.758;6.106;2023-11-21T09:25:35;21.00;;;6.85;;
73150;SDS011;61354;50.758;6.106;2023-11-21T09:28:03;24.40;;;8.07;;
73150;SDS011;61354;50.758;6.106;2023-11-21T09:30:33;20.58;;;8.07;;
73150;SDS011;61354;50.758;6.106;2023-11-21T09:32:59;22.00;;;8.02;;
73150;SDS011;61354;50.758;6.106;2023-11-21T09:35:25;20.70;;;6.97;;
73150;SDS011;61354;50.758;6.106;2023-11-21T09:37:53;22.40;;;7.10;;
73150;SDS011;61354;50.758;6.106;2023-11-21T09:40:20;17.67;;;6.10;;
73150;SDS011;61354;50.758;6.106;2023-11-21T09:42:56;21.60;;;6.60;;
73150;SDS011;61354;50.758;6.106;2023-11-21T09:47:52;18.95;;;6.40;;
73150;SDS011;61354;50.758;6.106;2023-11-21T09:50:20;20.30;;;6.30;;
73150;SDS011;61354;50.758;6.106;2023-11-21T09:55:27;20.35;;;6.20;;
73150;SDS011;61354;50.758;6.106;2023-11-21T09:57:57;18.02;;;6.13;;
73150;SDS011;61354;50.758;6.106;2023-11-21T10:00:23;20.70;;;7.20;;
73150;SDS011;61354;50.758;6.106;2023-11-21T10:02:49;17.10;;;6.00;;
73150;SDS011;61354;50.758;6.106;2023-11-21T10:05:16;17.23;;;6.10;;
73150;SDS011;61354;50.758;6.106;2023-11-21T10:07:45;16.60;;;6.32;;
73150;SDS011;61354;50.758;6.106;2023-11-21T10:10:12;19.33;;;7.05;;
73150;SDS011;61354;50.758;6.106;2023-11-21T10:12:41;17.80;;;6.75;;
73150;SDS011;61354;50.758;6.106;2023-11-21T10:15:09;17.73;;;6.65;;
73150;SDS011;61354;50.758;6.106;2023-11-21T10:17:41;18.40;;;6.78;;
73150;SDS011;61354;50.758;6.106;2023-11-21T10:20:10;22.55;;;7.43;;
73150;SDS011;61354;50.758;6.106;2023-11-21T10:22:39;17.25;;;5.90;;
73150;SDS011;61354;50.758;6.106;2023-11-21T10:25:08;19.25;;;6.90;;
73150;SDS011;61354;50.758;6.106;2023-11-21T10:27:35;20.60;;;6.93;;
73150;SDS011;61354;50.758;6.106;2023-11-21T10:30:04;18.27;;;7.50;;
73150;SDS011;61354;50.758;6.106;2023-11-21T10:32:37;14.10;;;5.70;;
73150;SDS011;61354;50.758;6.106;2023-11-21T10:35:08;16.77;;;5.43;;
73150;SDS011;61354;50.758;6.106;2023-11-21T10:37:38;16.45;;;5.15;;
73150;SDS011;61354;50.758;6.106;2023-11-21T10:40:09;15.45;;;5.53;;
73150;SDS011;61354;50.758;6.106;2023-11-21T10:42:38;15.80;;;5.80;;
73150;SDS011;61354;50.758;6.106;2023-11-21T10:45:05;17.50;;;5.60;;
73150;SDS011;61354;50.758;6.106;2023-11-21T10:47:39;13.70;;;5.22;;
73150;SDS011;61354;50.758;6.106;2023-11-21T10:50:05;15.18;;;6.00;;
73150;SDS011;61354;50.758;6.106;2023-11-21T10:52:31;15.57;;;5.05;;
73150;SDS011;61354;50.758;6.106;2023-11-21T10:54:57;17.05;;;5.45;;
73150;SDS011;61354;50.758;6.106;2023-11-21T10:57:28;13.52;;;5.03;;
73150;SDS011;61354;50.758;6.106;2023-11-21T10:59:55;15.75;;;5.07;;
73150;SDS011;61354;50.758;6.106;2023-11-21T11:02:23;12.25;;;4.82;;
73150;SDS011;61354;50.758;6.106;2023-11-21T11:04:57;16.15;;;5.07;;
73150;SDS011;61354;50.758;6.106;2023-11-21T11:07:26;12.43;;;5.38;;
73150;SDS011;61354;50.758;6.106;2023-11-21T11:09:53;15.25;;;5.55;;
73150;SDS011;61354;50.758;6.106;2023-11-21T11:12:20;15.77;;;6.47;;
73150;SDS011;61354;50.758;6.106;2023-11-21T11:14:46;15.52;;;5.97;;
73150;SDS011;61354;50.758;6.106;2023-11-21T11:17:13;12.40;;;5.43;;
73150;SDS011;61354;50.758;6.106;2023-11-21T11:19:39;13.98;;;5.15;;
73150;SDS011;61354;50.758;6.106;2023-11-21T11:24:44;11.88;;;4.57;;
73150;SDS011;61354;50.758;6.106;2023-11-21T11:27:42;10.88;;;4.18;;
73150;SDS011;61354;50.758;6.106;2023-11-21T11:33:07;12.45;;;5.10;;
73150;SDS011;61354;50.758;6.106;2023-11-21T11:38:23;11.63;;;5.18;;
73150;SDS011;61354;50.758;6.106;2023-11-21T11:40:51;13.43;;;5.00;;
73150;SDS011;61354;50.758;6.106;2023-11-21T11:43:25;17.30;;;5.32;;
73150;SDS011;61354;50.758;6.106;2023-11-21T11:45:51;15.38;;;6.78;;
73150;SDS011;61354;50.758;6.106;2023-11-21T11:48:19;13.38;;;4.90;;
73150;SDS011;61354;50.758;6.106;2023-11-21T11:51:04;15.20;;;5.40;;
73150;SDS011;61354;50.758;6.106;2023-11-21T11:53:46;14.27;;;5.30;;
73150;SDS011;61354;50.758;6.106;2023-11-21T11:56:20;11.98;;;4.50;;
73150;SDS011;61354;50.758;6.106;2023-11-21T11:58:49;12.93;;;4.88;;
73150;SDS011;61354;50.758;6.106;2023-11-21T12:01:19;11.98;;;4.40;;
73150;SDS011;61354;50.758;6.106;2023-11-21T12:06:36;11.50;;;4.13;;
73150;SDS011;61354;50.758;6.106;2023-11-21T12:09:02;13.55;;;4.15;;
73150;SDS011;61354;50.758;6.106;2023-11-21T12:11:33;14.00;;;4.03;;
73150;SDS011;61354;50.758;6.106;2023-11-21T12:14:01;14.68;;;4.25;;
73150;SDS011;61354;50.758;6.106;2023-11-21T12:16:32;11.55;;;4.90;;
73150;SDS011;61354;50.758;6.106;2023-11-21T12:18:58;11.13;;;4.32;;
73150;SDS011;61354;50.758;6.106;2023-11-21T12:21:23;10.30;;;3.83;;
73150;SDS011;61354;50.758;6.106;2023-11-21T12:23:50;13.85;;;4.28;;
73150;SDS011;61354;50.758;6.106;2023-11-21T12:26:16;9.75;;;4.07;;
73150;SDS011;61354;50.758;6.106;2023-11-21T12:28:41;12.23;;;4.25;;
73150;SDS011;61354;50.758;6.106;2023-11-21T12:31:07;12.18;;;4.30;;
73150;SDS011;61354;50.758;6.106;2023-11-21T12:33:33;11.00;;;4.38;;
73150;SDS011;61354;50.758;6.106;2023-11-21T12:35:58;10.45;;;3.97;;
73150;SDS011;61354;50.758;6.106;2023-11-21T12:38:24;9.65;;;3.63;;
73150;SDS011;61354;50.758;6.106;2023-11-21T12:40:50;12.85;;;4.40;;
73150;SDS011;61354;50.758;6.106;2023-11-21T12:43:16;10.60;;;3.83;;
73150;SDS011;61354;50.758;6.106;2023-11-21T12:45:43;10.57;;;3.55;;
73150;SDS011;61354;50.758;6.106;2023-11-21T12:48:09;11.32;;;3.65;;
73150;SDS011;61354;50.758;6.106;2023-11-21T12:50:36;8.35;;;3.60;;
73150;SDS011;61354;50.758;6.106;2023-11-21T12:53:04;8.60;;;2.85;;
73150;SDS011;61354;50.758;6.106;2023-11-21T12:55:33;11.30;;;3.80;;
73150;SDS011;61354;50.758;6.106;2023-11-21T12:58:04;11.07;;;3.42;;
73150;SDS011;61354;50.758;6.106;2023-11-21T13:00:38;8.23;;;3.17;;
73150;SDS011;61354;50.758;6.106;2023-11-21T13:03:06;10.20;;;3.78;;
73150;SDS011;61354;50.758;6.106;2023-11-21T13:05:34;11.73;;;4.65;;
73150;SDS011;61354;50.758;6.106;2023-11-21T13:08:04;11.10;;;5.32;;
73150;SDS011;61354;50.758;6.106;2023-11-21T13:10:33;12.25;;;5.13;;
73150;SDS011;61354;50.758;6.106;2023-11-21T13:13:02;13.00;;;4.93;;
73150;SDS011;61354;50.758;6.106;2023-11-21T13:15:39;13.98;;;4.75;;
73150;SDS011;61354;50.758;6.106;2023-11-21T13:18:08;15.20;;;4.30;;
73150;SDS011;61354;50.758;6.106;2023-11-21T13:20:36;16.67;;;4.70;;
73150;SDS011;61354;50.758;6.106;2023-11-21T13:23:06;11.13;;;4.30;;
73150;SDS011;61354;50.758;6.106;2023-11-21T13:25:33;10.13;;;3.80;;
73150;SDS011;61354;50.758;6.106;2023-11-21T13:27:59;9.02;;;4.07;;
73150;SDS011;61354;50.758;6.106;2023-11-21T13:30:28;8.55;;;3.45;;
73150;SDS011;61354;50.758;6.106;2023-11-21T13:33:00;9.70;;;3.92;;
73150;SDS011;61354;50.758;6.106;2023-11-21T13:35:27;7.15;;;3.30;;
73150;SDS011;61354;50.758;6.106;2023-11-21T13:38:09;11.80;;;3.92;;
73150;SDS011;61354;50.758;6.106;2023-11-21T13:40:37;10.75;;;4.13;;
73150;SDS011;61354;50.758;6.106;2023-11-21T13:43:17;10.05;;;4.13;;
73150;SDS011;61354;50.758;6.106;2023-11-21T13:45:46;10.52;;;4.45;;
73150;SDS011;61354;50.758;6.106;2023-11-21T13:48:12;10.45;;;3.90;;
73150;SDS011;61354;50.758;6.106;2023-11-21T13:50:50;10.82;;;4.32;;
73150;SDS011;61354;50.758;6.106;2023-11-21T13:53:35;10.25;;;4.03;;
73150;SDS011;61354;50.758;6.106;2023-11-21T13:56:03;10.27;;;4.28;;
73150;SDS011;61354;50.758;6.106;2023-11-21T13:58:28;9.13;;;3.67;;
73150;SDS011;61354;50.758;6.106;2023-11-21T14:01:24;10.35;;;3.85;;
73150;SDS011;61354;50.758;6.106;2023-11-21T14:04:17;8.75;;;3.58;;
73150;SDS011;61354;50.758;6.106;2023-11-21T14:06:43;10.32;;;3.53;;
73150;SDS011;61354;50.758;6.106;2023-11-21T14:09:14;13.48;;;3.78;;
73150;SDS011;61354;50.758;6.106;2023-11-21T14:11:54;12.07;;;4.45;;
73150;SDS011;61354;50.758;6.106;2023-11-21T14:14:25;8.40;;;3.22;;
73150;SDS011;61354;50.758;6.106;2023-11-21T14:16:52;11.52;;;3.80;;
73150;SDS011;61354;50.758;6.106;2023-11-21T14:19:19;9.65;;;4.30;;
73150;SDS011;61354;50.758;6.106;2023-11-21T14:21:44;10.15;;;3.90;;
73150;SDS011;61354;50.758;6.106;2023-11-21T14:24:11;12.98;;;4.53;;
73150;SDS011;61354;50.758;6.106;2023-11-21T14:26:43;10.75;;;4.30;;
73150;SDS011;61354;50.758;6.106;2023-11-21T14:29:13;11.55;;;4.53;;
73150;SDS011;61354;50.758;6.106;2023-11-21T14:31:42;9.65;;;4.35;;
73150;SDS011;61354;50.758;6.106;2023-11-21T14:34:08;11.02;;;4.85;;
73150;SDS011;61354;50.758;6.106;2023-11-21T14:36:34;9.80;;;4.10;;
73150;SDS011;61354;50.758;6.106;2023-11-21T14:39:02;10.68;;;4.38;;
73150;SDS011;61354;50.758;6.106;2023-11-21T14:41:32;13.25;;;4.90;;
73150;SDS011;61354;50.758;6.106;2023-11-21T14:44:00;11.60;;;4.70;;
73150;SDS011;61354;50.758;6.106;2023-11-21T14:46:28;9.93;;;4.22;;
73150;SDS011;61354;50.758;6.106;2023-11-21T14:48:53;11.57;;;4.50;;
73150;SDS011;61354;50.758;6.106;2023-11-21T14:51:32;10.50;;;4.45;;
73150;SDS011;61354;50.758;6.106;2023-11-21T14:54:14;8.05;;;3.78;;
73150;SDS011;61354;50.758;6.106;2023-11-21T14:56:41;10.32;;;3.85;;
73150;SDS011;61354;50.758;6.106;2023-11-21T14:59:10;10.00;;;3.97;;
73150;SDS011;61354;50.758;6.106;2023-11-21T15:01:41;9.88;;;4.00;;
73150;SDS011;61354;50.758;6.106;2023-11-21T15:04:22;10.05;;;4.28;;
73150;SDS011;61354;50.758;6.106;2023-11-21T15:07:05;9.77;;;4.10;;
73150;SDS011;61354;50.758;6.106;2023-11-21T15:09:31;10.95;;;4.35;;
73150;SDS011;61354;50.758;6.106;2023-11-21T15:11:57;10.98;;;4.28;;
73150;SDS011;61354;50.758;6.106;2023-11-21T15:14:32;10.82;;;4.47;;
73150;SDS011;61354;50.758;6.106;2023-11-21T15:17:00;10.80;;;4.45;;
73150;SDS011;61354;50.758;6.106;2023-11-21T15:19:28;10.57;;;4.70;;
73150;SDS011;61354;50.758;6.106;2023-11-21T15:21:54;10.13;;;5.43;;
73150;SDS011;61354;50.758;6.106;2023-11-21T15:24:19;13.55;;;6.93;;
73150;SDS011;61354;50.758;6.106;2023-11-21T15:26:45;12.52;;;6.20;;
73150;SDS011;61354;50.758;6.106;2023-11-21T15:29:11;12.52;;;5.68;;